N61 weather

Hinshaw (Greenacres) Airport
Liberty, North Carolina, United States

Public forecast

Using degrees Fahrenheit for public forecast. Weather courtesy of forecast.io.

METAR (pilot weather report)

Closest report is Siler City Municipal Airport, 10.2 nm (19.0 km) S. Retrieved 2019/07/19 12:35 UTC (0 seconds ago):

KSCR 191235Z AUTO 21004KT 10SM CLR 25/22 A3005 RMK AO2 T02460222

TAF (pilot weather forecast)

Closest forecast is Piedmont Triad International Airport, 24.0 nm (44.5 km) NW. Retrieved 2019/07/19 12:22 UTC (0 seconds ago):

TAF KGSO 191120Z 1912/2012 32005KT P6SM SKC FM191800 24005KT P6SM SCT050